createdAt,value
2022-11-18T00:01:21.926Z,-0.10
2022-11-18T00:03:49.704Z,0.00
2022-11-18T00:06:20.312Z,0.00
2022-11-18T00:08:47.055Z,0.10
2022-11-18T00:11:36.067Z,0.00
2022-11-18T00:14:21.251Z,0.00
2022-11-18T00:17:01.032Z,0.00
2022-11-18T00:19:31.198Z,0.00
2022-11-18T00:21:58.003Z,0.00
2022-11-18T00:24:25.480Z,0.00
2022-11-18T00:26:52.365Z,0.00
2022-11-18T00:29:19.275Z,-0.04
2022-11-18T00:31:46.240Z,-0.04
2022-11-18T00:34:15.752Z,-0.10
2022-11-18T00:36:44.661Z,-0.10
2022-11-18T00:39:12.728Z,-0.10
2022-11-18T00:41:57.542Z,-0.10
2022-11-18T00:44:24.059Z,-0.10
2022-11-18T00:46:50.436Z,-0.10
2022-11-18T00:49:16.989Z,-0.10
2022-11-18T00:51:43.656Z,-0.10
2022-11-18T00:54:10.177Z,-0.10
2022-11-18T00:56:36.555Z,-0.10
2022-11-18T00:59:02.987Z,-0.20
2022-11-18T01:01:29.574Z,-0.20
2022-11-18T01:03:56.469Z,-0.30
2022-11-18T01:06:23.383Z,-0.30
2022-11-18T01:08:49.816Z,-0.40
2022-11-18T01:11:34.836Z,-0.40
2022-11-18T01:14:01.533Z,-0.40
2022-11-18T01:16:29.618Z,-0.30
2022-11-18T01:18:56.622Z,-0.30
2022-11-18T01:21:23.204Z,-0.22
2022-11-18T01:23:49.641Z,-0.20
2022-11-18T01:26:17.799Z,-0.20
2022-11-18T01:28:44.711Z,-0.20
2022-11-18T01:31:15.063Z,-0.20
2022-11-18T01:33:42.682Z,-0.20
2022-11-18T01:36:23.942Z,-0.20
2022-11-18T01:38:51.939Z,-0.20
2022-11-18T01:41:21.721Z,-0.18
2022-11-18T01:43:53.348Z,-0.10
2022-11-18T01:46:22.356Z,-0.08
2022-11-18T01:48:57.096Z,0.00
2022-11-18T01:51:32.415Z,0.00
2022-11-18T01:54:13.027Z,-0.10
2022-11-18T01:56:46.961Z,-0.20
2022-11-18T01:59:19.658Z,-0.20
2022-11-18T02:01:47.522Z,-0.14
2022-11-18T02:04:15.691Z,-0.10
2022-11-18T02:06:46.123Z,-0.18
2022-11-18T02:09:16.065Z,-0.20
2022-11-18T02:14:36.991Z,-0.20
2022-11-18T02:18:01.839Z,-0.20
2022-11-18T02:20:38.547Z,-0.30
2022-11-18T02:23:50.845Z,-0.30
2022-11-18T02:26:55.071Z,-0.40
2022-11-18T02:29:30.058Z,-0.50
2022-11-18T02:32:09.962Z,-0.50
2022-11-18T02:34:51.961Z,-0.60
2022-11-18T02:37:30.940Z,-0.70
2022-11-18T02:40:10.574Z,-0.68
2022-11-18T02:42:40.449Z,-0.70
2022-11-18T02:45:16.910Z,-0.70
2022-11-18T02:47:47.743Z,-0.66
2022-11-18T02:50:21.368Z,-0.60
2022-11-18T02:52:56.338Z,-0.70
2022-11-18T02:55:28.067Z,-0.70
2022-11-18T02:57:56.190Z,-0.70
2022-11-18T03:00:22.950Z,-0.60
2022-11-18T03:02:50.843Z,-0.50
2022-11-18T03:05:32.619Z,-0.52
2022-11-18T03:08:11.340Z,-0.50
2022-11-18T03:11:11.525Z,-0.50
2022-11-18T03:14:13.909Z,-0.50
2022-11-18T03:16:52.003Z,-0.60
2022-11-18T03:19:46.480Z,-0.70
2022-11-18T03:22:27.914Z,-0.70
2022-11-18T03:25:05.982Z,-0.70
2022-11-18T03:28:16.779Z,-0.70
2022-11-18T03:31:10.872Z,-0.68
2022-11-18T03:34:02.031Z,-0.60
2022-11-18T03:36:37.056Z,-0.50
2022-11-18T03:39:09.941Z,-0.60
2022-11-18T03:41:43.580Z,-0.60
2022-11-18T03:44:22.710Z,-0.70
2022-11-18T03:47:00.189Z,-0.74
2022-11-18T03:49:44.134Z,-0.70
2022-11-18T03:52:23.074Z,-0.70
2022-11-18T03:54:56.738Z,-0.68
2022-11-18T03:57:34.683Z,-0.70
2022-11-18T04:00:10.108Z,-0.70
2022-11-18T04:02:38.334Z,-0.70
2022-11-18T04:05:10.601Z,-0.70
2022-11-18T04:08:02.683Z,-0.80
2022-11-18T04:10:47.808Z,-0.88
2022-11-18T04:13:32.839Z,-1.00
2022-11-18T04:16:00.165Z,-1.00
2022-11-18T04:18:27.297Z,-1.00
2022-11-18T04:20:54.355Z,-0.98
2022-11-18T04:23:20.816Z,-0.90
2022-11-18T04:25:47.202Z,-0.90
2022-11-18T04:28:13.595Z,-0.80
2022-11-18T04:30:39.968Z,-0.90
2022-11-18T04:33:06.441Z,-0.92
2022-11-18T04:35:32.795Z,-1.06
2022-11-18T04:37:59.209Z,-1.20
2022-11-18T04:40:25.692Z,-1.20
2022-11-18T04:42:52.508Z,-1.10
2022-11-18T04:45:18.980Z,-1.20
2022-11-18T04:47:45.364Z,-1.12
2022-11-18T04:50:11.809Z,-1.20
2022-11-18T04:52:38.227Z,-1.20
2022-11-18T04:55:05.811Z,-1.30
2022-11-18T04:57:32.286Z,-1.40
2022-11-18T04:59:58.764Z,-1.38
2022-11-18T05:02:25.210Z,-1.30
2022-11-18T05:04:52.034Z,-1.24
2022-11-18T05:07:18.471Z,-1.26
2022-11-18T05:09:44.994Z,-1.30
2022-11-18T05:12:34.666Z,-1.30
2022-11-18T05:15:01.407Z,-1.30
2022-11-18T05:17:27.916Z,-1.30
2022-11-18T05:19:54.795Z,-1.30
2022-11-18T05:22:21.328Z,-1.30
2022-11-18T05:24:47.865Z,-1.30
2022-11-18T05:27:15.977Z,-1.30
2022-11-18T05:29:43.378Z,-1.30
2022-11-18T05:32:09.905Z,-1.30
2022-11-18T05:34:36.579Z,-1.20
2022-11-18T05:37:02.999Z,-1.12
2022-11-18T05:39:29.441Z,-1.00
2022-11-18T05:42:14.519Z,-1.00
2022-11-18T05:44:40.881Z,-1.02
2022-11-18T05:47:07.303Z,-1.02
2022-11-18T05:49:33.759Z,-1.04
2022-11-18T05:52:00.120Z,-1.10
2022-11-18T05:54:26.692Z,-1.10
2022-11-18T05:56:53.360Z,-1.10
2022-11-18T05:59:20.228Z,-1.20
2022-11-18T06:02:07.823Z,-1.20
2022-11-18T06:04:55.316Z,-1.20
2022-11-18T06:07:41.294Z,-1.20
2022-11-18T06:10:13.316Z,-1.20
2022-11-18T06:12:45.342Z,-1.10
2022-11-18T06:15:41.293Z,-1.10
2022-11-18T06:18:24.261Z,-1.10
2022-11-18T06:20:55.409Z,-1.10
2022-11-18T06:23:22.431Z,-1.10
2022-11-18T06:25:49.723Z,-1.10
2022-11-18T06:28:18.008Z,-1.10
2022-11-18T06:30:44.418Z,-1.02
2022-11-18T06:33:10.855Z,-1.00
2022-11-18T06:35:37.312Z,-1.00
2022-11-18T06:38:03.732Z,-1.06
2022-11-18T06:40:34.737Z,-1.10
2022-11-18T06:43:28.115Z,-1.00
2022-11-18T06:46:21.663Z,-1.00
2022-11-18T06:48:48.594Z,-1.00
2022-11-18T06:51:15.323Z,-1.10
2022-11-18T06:53:42.228Z,-1.10
2022-11-18T06:56:13.325Z,-1.10
2022-11-18T06:58:40.250Z,-1.10
2022-11-18T07:01:17.649Z,-1.10
2022-11-18T07:03:46.415Z,-1.08
2022-11-18T07:06:16.423Z,-1.20
2022-11-18T07:08:43.540Z,-1.30
2022-11-18T07:11:14.410Z,-1.30
2022-11-18T07:13:43.973Z,-1.30
2022-11-18T07:16:18.128Z,-1.30
2022-11-18T07:18:46.850Z,-1.30
2022-11-18T07:21:19.794Z,-1.30
2022-11-18T07:23:47.637Z,-1.20
2022-11-18T07:26:15.946Z,-1.20
2022-11-18T07:28:43.633Z,-1.14
2022-11-18T07:31:16.801Z,-1.10
2022-11-18T07:33:45.154Z,-1.00
2022-11-18T07:36:18.563Z,-0.90
2022-11-18T07:38:48.838Z,-0.82
2022-11-18T07:41:19.119Z,-0.80
2022-11-18T07:43:47.007Z,-0.90
2022-11-18T07:46:22.386Z,-0.90
2022-11-18T07:48:53.040Z,-0.90
2022-11-18T07:51:23.745Z,-0.90
2022-11-18T07:53:50.283Z,-0.90
2022-11-18T07:56:18.022Z,-0.88
2022-11-18T07:58:45.666Z,-0.88
2022-11-18T08:01:22.653Z,-0.80
2022-11-18T08:03:49.515Z,-0.80
2022-11-18T08:06:18.951Z,-0.84
2022-11-18T08:08:47.268Z,-0.90
2022-11-18T08:11:21.874Z,-0.82
2022-11-18T08:13:51.460Z,-0.80
2022-11-18T08:16:22.284Z,-0.70
2022-11-18T08:18:50.167Z,-0.70
2022-11-18T08:21:21.426Z,-0.70
2022-11-18T08:24:01.340Z,-0.70
2022-11-18T08:26:27.984Z,-0.70
2022-11-18T08:28:55.351Z,-0.70
2022-11-18T08:31:25.758Z,-0.70
2022-11-18T08:34:02.550Z,-0.70
2022-11-18T08:36:35.749Z,-0.70
2022-11-18T08:39:07.222Z,-0.78
2022-11-18T08:41:43.147Z,-0.80
2022-11-18T08:44:16.649Z,-0.80
2022-11-18T08:46:47.360Z,-0.80
2022-11-18T08:49:14.479Z,-0.80
2022-11-18T08:51:40.917Z,-0.80
2022-11-18T08:54:07.304Z,-0.70
2022-11-18T08:56:34.343Z,-0.70
2022-11-18T08:59:00.690Z,-0.64
2022-11-18T09:01:27.729Z,-0.60
2022-11-18T09:03:54.467Z,-0.60
2022-11-18T09:06:24.802Z,-0.60
2022-11-18T09:08:53.080Z,-0.60
2022-11-18T09:11:24.092Z,-0.60
2022-11-18T09:16:46.897Z,-0.60
2022-11-18T09:22:04.269Z,-0.58
2022-11-18T09:24:30.830Z,-0.50
2022-11-18T09:26:58.650Z,-0.40
2022-11-18T09:29:26.411Z,-0.32
2022-11-18T09:31:54.541Z,-0.30
2022-11-18T09:34:22.408Z,-0.20
2022-11-18T09:36:49.642Z,-0.20
2022-11-18T09:39:17.664Z,-0.20
2022-11-18T09:41:53.901Z,-0.20
2022-11-18T09:44:38.575Z,-0.20
2022-11-18T09:47:35.438Z,-0.20
2022-11-18T09:50:47.969Z,-0.16
2022-11-18T09:53:23.292Z,-0.10
2022-11-18T09:55:52.158Z,-0.10
2022-11-18T09:58:35.554Z,0.00
2022-11-18T10:01:03.564Z,0.00
2022-11-18T10:03:33.578Z,0.00
2022-11-18T10:06:12.308Z,0.00
2022-11-18T10:09:22.997Z,0.10
2022-11-18T10:12:29.454Z,0.18
2022-11-18T10:15:21.335Z,0.20
2022-11-18T10:18:37.854Z,0.30
2022-11-18T10:21:38.083Z,0.30
2022-11-18T10:24:19.718Z,0.38
2022-11-18T10:26:47.767Z,0.32
2022-11-18T10:29:14.286Z,0.34
2022-11-18T10:32:07.517Z,0.34
2022-11-18T10:34:47.622Z,0.30
2022-11-18T10:38:06.364Z,0.20
2022-11-18T10:40:29.482Z,0.22
2022-11-18T10:42:56.427Z,0.20
2022-11-18T10:45:22.779Z,0.20
2022-11-18T10:48:03.420Z,0.28
2022-11-18T10:50:39.479Z,0.30
2022-11-18T10:53:34.541Z,0.40
2022-11-18T10:56:13.132Z,0.50
2022-11-18T10:58:50.158Z,0.60
2022-11-18T11:01:25.316Z,0.70
2022-11-18T11:04:22.408Z,0.76
2022-11-18T11:06:48.820Z,0.90
2022-11-18T11:09:15.174Z,1.00
2022-11-18T11:11:55.160Z,1.10
2022-11-18T11:14:28.520Z,1.20
2022-11-18T11:17:27.739Z,1.26
2022-11-18T11:20:07.046Z,1.30
2022-11-18T11:22:33.691Z,1.30
2022-11-18T11:25:00.227Z,1.30
2022-11-18T11:28:17.665Z,1.32
2022-11-18T11:31:26.912Z,1.48
2022-11-18T11:34:22.245Z,1.50
2022-11-18T11:37:04.278Z,1.50
2022-11-18T11:40:20.230Z,1.50
2022-11-18T11:43:14.532Z,1.50
2022-11-18T11:46:07.175Z,1.40
2022-11-18T11:48:57.265Z,1.30
2022-11-18T11:51:39.757Z,1.26
2022-11-18T11:54:24.518Z,1.20
2022-11-18T11:57:30.721Z,1.20
2022-11-18T12:00:04.985Z,1.12
2022-11-18T12:03:08.647Z,1.20
2022-11-18T12:05:39.813Z,1.10
2022-11-18T12:08:14.955Z,1.10
2022-11-18T12:10:50.740Z,1.10
2022-11-18T12:13:37.055Z,1.00
2022-11-18T12:16:29.440Z,1.00
2022-11-18T12:19:13.333Z,1.00
2022-11-18T12:21:45.841Z,0.90
2022-11-18T12:24:18.358Z,0.80
2022-11-18T12:26:50.560Z,0.80
2022-11-18T12:29:20.341Z,0.80
2022-11-18T12:31:55.074Z,0.80
2022-11-18T12:34:41.135Z,0.80
2022-11-18T12:37:26.480Z,0.80
2022-11-18T12:39:55.724Z,0.80
2022-11-18T12:45:42.163Z,0.80
2022-11-18T12:48:42.049Z,0.80
2022-11-18T12:51:14.452Z,0.80
2022-11-18T12:53:48.274Z,0.76
2022-11-18T12:56:17.670Z,0.70
2022-11-18T12:58:54.232Z,0.70
2022-11-18T13:01:31.112Z,0.70
2022-11-18T13:04:13.438Z,0.70
2022-11-18T13:06:42.516Z,0.70
2022-11-18T13:09:24.428Z,0.80
2022-11-18T13:11:56.390Z,0.80
2022-11-18T13:14:51.351Z,0.80
2022-11-18T13:17:54.056Z,0.80
2022-11-18T13:20:38.868Z,0.80
2022-11-18T13:23:33.235Z,0.70
2022-11-18T13:26:07.525Z,0.70
2022-11-18T13:29:12.885Z,0.70
2022-11-18T13:32:08.164Z,0.70
2022-11-18T13:34:50.171Z,0.70
2022-11-18T13:37:28.348Z,0.60
2022-11-18T13:39:55.625Z,0.60
2022-11-18T13:42:25.623Z,0.60
2022-11-18T13:45:03.371Z,0.60
2022-11-18T13:47:51.975Z,0.60
2022-11-18T13:50:40.973Z,0.60
2022-11-18T13:53:33.578Z,0.60
2022-11-18T13:56:18.936Z,0.50
2022-11-18T13:59:16.462Z,0.50
2022-11-18T14:01:45.842Z,0.40
2022-11-18T14:04:25.199Z,0.40
2022-11-18T14:06:51.763Z,0.30
2022-11-18T14:09:30.401Z,0.30
2022-11-18T14:12:13.668Z,0.30
2022-11-18T14:14:42.652Z,0.30
2022-11-18T14:17:23.787Z,0.30
2022-11-18T14:19:53.910Z,0.20
2022-11-18T14:22:26.711Z,0.20
2022-11-18T14:25:06.411Z,0.20
2022-11-18T14:27:37.840Z,0.20
2022-11-18T14:30:39.845Z,0.12
2022-11-18T14:33:06.230Z,0.10
2022-11-18T14:35:35.098Z,0.10
2022-11-18T14:38:30.262Z,0.02
2022-11-18T14:41:01.152Z,0.00
2022-11-18T14:43:28.237Z,0.00
2022-11-18T14:45:59.992Z,0.00
2022-11-18T14:48:32.467Z,0.00
2022-11-18T14:51:00.500Z,0.00
2022-11-18T14:53:27.111Z,-0.04
2022-11-18T14:55:59.934Z,-0.10
2022-11-18T14:58:26.366Z,-0.10
2022-11-18T15:00:53.135Z,-0.10
2022-11-18T15:03:19.596Z,-0.16
2022-11-18T15:05:46.321Z,-0.20
2022-11-18T15:08:13.595Z,-0.20
2022-11-18T15:10:40.170Z,-0.20
2022-11-18T15:13:06.599Z,-0.24
2022-11-18T15:15:33.064Z,-0.30
2022-11-18T15:17:59.504Z,-0.34
2022-11-18T15:20:26.435Z,-0.40
2022-11-18T15:22:53.042Z,-0.42
2022-11-18T15:25:19.511Z,-0.50
2022-11-18T15:27:46.244Z,-0.54
2022-11-18T15:30:15.467Z,-0.60
2022-11-18T15:32:43.188Z,-0.60
2022-11-18T15:35:12.806Z,-0.60
2022-11-18T15:37:39.788Z,-0.60
2022-11-18T15:40:07.295Z,-0.64
2022-11-18T15:42:38.187Z,-0.62
2022-11-18T15:45:11.760Z,-0.70
2022-11-18T15:47:38.103Z,-0.70
2022-11-18T15:50:05.610Z,-0.72
2022-11-18T15:52:32.393Z,-0.78
2022-11-18T15:54:58.852Z,-0.70
2022-11-18T15:57:25.255Z,-0.70
2022-11-18T15:59:51.591Z,-0.80
2022-11-18T16:02:17.972Z,-0.80
2022-11-18T16:04:44.404Z,-0.80
2022-11-18T16:07:10.954Z,-0.76
2022-11-18T16:09:56.023Z,-0.70
2022-11-18T16:12:41.617Z,-0.80
2022-11-18T16:15:27.393Z,-0.90
2022-11-18T16:17:53.794Z,-0.90
2022-11-18T16:20:20.246Z,-0.90
2022-11-18T16:22:47.413Z,-0.90
2022-11-18T16:25:14.176Z,-0.94
2022-11-18T16:27:40.985Z,-1.00
2022-11-18T16:30:07.985Z,-0.96
2022-11-18T16:32:34.395Z,-0.90
2022-11-18T16:35:01.642Z,-0.90
2022-11-18T16:37:28.496Z,-0.90
2022-11-18T16:39:54.893Z,-0.86
2022-11-18T16:42:21.343Z,-0.80
2022-11-18T16:44:47.817Z,-0.80
2022-11-18T16:47:15.351Z,-0.74
2022-11-18T16:49:43.094Z,-0.80
2022-11-18T16:52:09.564Z,-0.80
2022-11-18T16:54:41.052Z,-0.70
2022-11-18T16:57:11.001Z,-0.70
2022-11-18T16:59:37.422Z,-0.62
2022-11-18T17:02:04.206Z,-0.60
2022-11-18T17:04:31.254Z,-0.70
2022-11-18T17:07:00.654Z,-0.70
2022-11-18T17:09:27.434Z,-0.80
2022-11-18T17:11:55.511Z,-0.80
2022-11-18T17:14:23.261Z,-0.90
2022-11-18T17:16:50.678Z,-0.90
2022-11-18T17:19:21.654Z,-0.90
2022-11-18T17:21:50.417Z,-0.80
2022-11-18T17:24:20.918Z,-0.80
2022-11-18T17:26:48.539Z,-0.86
2022-11-18T17:29:15.997Z,-0.82
2022-11-18T17:31:42.940Z,-0.80
2022-11-18T17:34:14.767Z,-0.86
2022-11-18T17:36:42.669Z,-0.84
2022-11-18T17:39:11.939Z,-0.90
2022-11-18T17:41:57.905Z,-1.00
2022-11-18T17:44:24.814Z,-1.10
2022-11-18T17:46:51.600Z,-1.10
2022-11-18T17:49:21.053Z,-1.10
2022-11-18T17:51:47.606Z,-1.14
2022-11-18T17:54:15.028Z,-1.10
2022-11-18T17:56:41.861Z,-1.08
2022-11-18T17:59:08.621Z,-1.08
2022-11-18T18:01:35.749Z,-1.04
2022-11-18T18:04:02.722Z,-1.00
2022-11-18T18:06:29.165Z,-1.00
2022-11-18T18:08:57.280Z,-1.00
2022-11-18T18:11:24.326Z,-1.00
2022-11-18T18:14:09.426Z,-0.90
2022-11-18T18:16:36.798Z,-0.90
2022-11-18T18:19:06.015Z,-0.90
2022-11-18T18:21:33.779Z,-1.00
2022-11-18T18:24:00.575Z,-1.00
2022-11-18T18:26:31.529Z,-0.98
2022-11-18T18:29:00.396Z,-0.90
2022-11-18T18:31:29.210Z,-0.92
2022-11-18T18:33:55.718Z,-1.00
2022-11-18T18:36:24.843Z,-0.90
2022-11-18T18:38:52.504Z,-0.90
2022-11-18T18:41:22.604Z,-1.00
2022-11-18T18:43:50.148Z,-1.00
2022-11-18T18:46:32.165Z,-1.00
2022-11-18T18:49:13.825Z,-1.00
2022-11-18T18:51:44.271Z,-1.00
2022-11-18T18:54:14.586Z,-1.10
2022-11-18T18:56:42.099Z,-1.10
2022-11-18T18:59:09.793Z,-1.20
2022-11-18T19:01:39.212Z,-1.20
2022-11-18T19:04:08.020Z,-1.20
2022-11-18T19:09:25.860Z,-1.40
2022-11-18T19:12:11.334Z,-1.40
2022-11-18T19:14:37.870Z,-1.30
2022-11-18T19:17:09.926Z,-1.30
2022-11-18T19:19:56.744Z,-1.40
2022-11-18T19:22:24.493Z,-1.50
2022-11-18T19:27:40.023Z,-1.50
2022-11-18T19:30:08.064Z,-1.50
2022-11-18T19:32:41.434Z,-1.58
2022-11-18T19:35:09.388Z,-1.50
2022-11-18T19:37:36.017Z,-1.60
2022-11-18T19:40:08.877Z,-1.60
2022-11-18T19:42:37.643Z,-1.52
2022-11-18T19:45:11.044Z,-1.50
2022-11-18T19:47:38.306Z,-1.50
2022-11-18T19:50:06.919Z,-1.60
2022-11-18T19:52:33.352Z,-1.60
2022-11-18T19:54:59.725Z,-1.56
2022-11-18T19:57:26.320Z,-1.60
2022-11-18T19:59:52.861Z,-1.60
2022-11-18T20:02:19.296Z,-1.60
2022-11-18T20:05:05.650Z,-1.66
2022-11-18T20:07:32.429Z,-1.70
2022-11-18T20:09:59.532Z,-1.70
2022-11-18T20:12:25.914Z,-1.70
2022-11-18T20:14:52.344Z,-1.70
2022-11-18T20:17:19.107Z,-1.70
2022-11-18T20:19:45.582Z,-1.70
2022-11-18T20:22:11.984Z,-1.60
2022-11-18T20:24:38.744Z,-1.70
2022-11-18T20:27:05.113Z,-1.70
2022-11-18T20:29:31.499Z,-1.76
2022-11-18T20:31:57.918Z,-1.70
2022-11-18T20:34:24.352Z,-1.70
2022-11-18T20:36:53.043Z,-1.70
2022-11-18T20:39:19.751Z,-1.80
2022-11-18T20:42:06.286Z,-2.00
2022-11-18T20:44:32.787Z,-2.00
2022-11-18T20:46:59.193Z,-1.94
2022-11-18T20:49:25.588Z,-1.90
2022-11-18T20:51:51.988Z,-1.90
2022-11-18T20:54:18.557Z,-1.90
2022-11-18T20:56:44.933Z,-1.90
2022-11-18T20:59:11.506Z,-1.90
2022-11-18T21:01:38.038Z,-1.90
2022-11-18T21:04:04.744Z,-2.00
2022-11-18T21:06:32.639Z,-2.10
2022-11-18T21:09:05.452Z,-2.20
2022-11-18T21:11:36.392Z,-2.20
2022-11-18T21:14:24.842Z,-2.20
2022-11-18T21:17:03.676Z,-2.30
2022-11-18T21:19:32.845Z,-2.36
2022-11-18T21:21:59.650Z,-2.40
2022-11-18T21:24:34.211Z,-2.40
2022-11-18T21:27:02.762Z,-2.40
2022-11-18T21:29:32.196Z,-2.42
2022-11-18T21:32:01.664Z,-2.48
2022-11-18T21:34:28.956Z,-2.50
2022-11-18T21:36:55.617Z,-2.60
2022-11-18T21:39:24.335Z,-2.60
2022-11-18T21:41:55.590Z,-2.70
2022-11-18T21:44:23.406Z,-2.70
2022-11-18T21:46:49.791Z,-2.76
2022-11-18T21:49:16.725Z,-2.80
2022-11-18T21:51:43.988Z,-2.86
2022-11-18T21:54:12.546Z,-2.80
2022-11-18T21:56:39.099Z,-2.80
2022-11-18T21:59:07.758Z,-2.80
2022-11-18T22:01:35.099Z,-2.76
2022-11-18T22:04:05.381Z,-2.80
2022-11-18T22:06:34.356Z,-2.80
2022-11-18T22:09:03.980Z,-2.82
2022-11-18T22:11:30.869Z,-2.90
2022-11-18T22:13:57.884Z,-2.80
2022-11-18T22:16:26.794Z,-2.88
2022-11-18T22:19:01.515Z,-2.90
2022-11-18T22:21:30.591Z,-2.90
2022-11-18T22:24:01.508Z,-3.00
2022-11-18T22:26:28.868Z,-3.00
2022-11-18T22:28:57.758Z,-3.00
2022-11-18T22:31:27.822Z,-3.00
2022-11-18T22:33:55.717Z,-3.10
2022-11-18T22:36:25.806Z,-3.10
2022-11-18T22:38:54.450Z,-3.10
2022-11-18T22:41:45.463Z,-3.10
2022-11-18T22:44:15.106Z,-3.10
2022-11-18T22:46:44.357Z,-3.20
2022-11-18T22:49:12.942Z,-3.28
2022-11-18T22:51:40.762Z,-3.28
2022-11-18T22:54:38.369Z,-3.30
2022-11-18T22:56:55.675Z,-3.36
2022-11-18T22:59:22.791Z,-3.38
2022-11-18T23:01:51.967Z,-3.40
2022-11-18T23:04:18.774Z,-3.40
2022-11-18T23:06:45.361Z,-3.40
2022-11-18T23:09:11.887Z,-3.48
2022-11-18T23:11:56.647Z,-3.50
2022-11-18T23:14:23.067Z,-3.44
2022-11-18T23:16:49.561Z,-3.40
2022-11-18T23:19:17.616Z,-3.50
2022-11-18T23:21:45.465Z,-3.52
2022-11-18T23:24:15.353Z,-3.52
2022-11-18T23:26:42.587Z,-3.60
2022-11-18T23:29:11.445Z,-3.60
2022-11-18T23:31:42.835Z,-3.78
2022-11-18T23:34:12.108Z,-3.80
2022-11-18T23:36:39.176Z,-3.80
2022-11-18T23:39:06.170Z,-3.80
2022-11-18T23:41:33.251Z,-3.72
2022-11-18T23:43:59.706Z,-3.70
2022-11-18T23:46:27.751Z,-3.70
2022-11-18T23:48:54.374Z,-3.62
2022-11-18T23:51:22.995Z,-3.62
2022-11-18T23:53:54.922Z,-3.60
2022-11-18T23:56:26.767Z,-3.60
2022-11-18T23:58:55.957Z,-3.50
